Airfield :
LOGIN :

Register | Disclaimer

   EN    FR    IT 

 










Legend :    VFR   Marginal VFR   IFR   Intensive IFR   Very Intensive IFR
Visi :
Ceiling :
>= 8 km
>= 3000ft
5 to 8 km
1000 to 3000 ft
1500m to 5 km
500 to 1000 ft
800 to 1500m
200 to 500 ft
< 800m
< 200 ft
Symbols :   Thunderstorms  Fog  Heavy snow  Heavy precipitations  Wind > 20 kt
SIGMETs :     Misc.  Thunderstorms  Icing  Turbulence  Mountain Waves  Volcanic Ashes






- Airport Elevation : 863 ft
- IATA code : ZAZ


LEZG - Zaragoza Aragon

CURRENT METAR :
  • 192130Z 06004KT 9999 FEW085 22/17 Q1012

EXPIRED METARs :
  • 192100Z 01003KT 340V040 9999 FEW085 22/18 Q1013
  • 192030Z 08004KT 9999 FEW085 23/18 Q1012
  • 192000Z 10005KT 9999 FEW040 23/18 Q1012
  • 191930Z 09006KT 9999 FEW040 24/18 Q1012

TAF AMD TAF LEZG
Valid from the 19 at 20:00 until the 20 at 18:00 UTC


192000Z 1920/2018 12010KT 9999 SCT080 TX29/2014Z TN16/2006Z
BECMG 1920/1922 25005KT
PROB40
TEMPO 1921/2004 25015G25KT 4000 TSRA FEW050CB
BECMG 2007/2009 25015KT



MET'MAP, your aeronautical weather chart ! - Copyright ORBIFLY December 2007 - Disclaimer

ORBIFLY MET'MAP TEAM :

Programming & Development : Alexandra Zaïnal
Concept & original design : Baudouin d'Aumeries
Assistance for programming : Marc-Olivier Méhu
Technical & hardware support : Manuel Goepfert

Contact : metmap@orbifly.com




SOURCES & CREDITS :

   NOAA